Time;durP1;ratioP1;P1;durP2;ratioP2;P2;SDS_P1;SDS_P2;PMS_P1;PMS_P2;Temp;Humidity;BMP_temperature;BMP_pressure;BME280_temperature;BME280_humidity;BME280_pressure;Samples;Min_cycle;Max_cycle;Signal;HPM_P1;HPM_P2
2021/12/05 00:18:39;;;;;;;;;3.00;3.00;;;;;5.04;100.00;99488.78;5075653;28;45267;-70
2021/12/05 00:23:59;;;;;;;;;5.25;3.00;;;;;5.14;100.00;99494.53;5076165;28;45234;-71
2021/12/05 00:26:25;;;;;;;;;4.00;4.00;;;;;5.09;100.00;99484.25;5080892;27;45887;-68
2021/12/05 00:31:43;;;;;;;;;3.75;2.00;;;;;5.12;100.00;99488.53;5075003;27;45459;-71
2021/12/05 00:34:19;;;;;;;;;5.25;3.25;;;;;5.09;100.00;99480.81;5074758;27;45188;-71
2021/12/05 00:45:35;;;;;;;;;2.00;2.00;;;;;5.04;100.00;99473.16;5076159;27;45571;-71
2021/12/05 01:03:47;;;;;;;;;2.00;2.00;;;;;5.30;100.00;99479.22;5075079;27;45260;-64
2021/12/05 01:16:41;;;;;;;;;2.25;2.00;;;;;5.40;100.00;99466.66;5078664;27;45244;-64
2021/12/05 01:19:09;;;;;;;;;2.75;1.00;;;;;5.39;99.84;99464.97;5080344;27;45215;-66
2021/12/05 01:21:37;;;;;;;;;3.00;2.50;;;;;5.43;100.00;99465.72;5078417;27;46194;-70
2021/12/05 01:36:59;;;;;;;;;1.00;1.00;;;;;5.26;99.19;99446.31;5080066;27;45317;-70
2021/12/05 01:50:39;;;;;;;;;1.00;1.00;;;;;4.94;99.54;99450.91;5077784;28;45477;-69
2021/12/05 01:56:27;;;;;;;;;1.75;1.00;;;;;4.96;99.46;99447.38;5078495;27;45251;-70
2021/12/05 02:33:34;;;;;;;;;3.75;0.25;;;;;4.59;100.00;99433.00;5078068;27;45334;-70
2021/12/05 02:41:48;;;;;;;;;1.00;0.50;;;;;4.49;100.00;99429.84;5052938;28;45376;-69
2021/12/05 02:44:21;;;;;;;;;3.00;0.25;;;;;4.46;100.00;99426.50;5077571;27;45569;-69
2021/12/05 02:47:15;;;;;;;;;1.25;0.00;;;;;4.46;100.00;99421.28;5077148;27;46676;-71
2021/12/05 02:49:46;;;;;;;;;2.00;1.00;;;;;4.47;100.00;99421.25;5092960;27;45328;-69
2021/12/05 02:52:20;;;;;;;;;3.00;1.50;;;;;4.51;100.00;99414.16;5082518;27;45488;-72
2021/12/05 02:54:50;;;;;;;;;2.50;1.25;;;;;4.50;100.00;99400.31;5083972;27;45846;-69
2021/12/05 02:57:19;;;;;;;;;0.00;0.00;;;;;4.50;100.00;99404.66;5078186;27;47440;-67
2021/12/05 02:59:50;;;;;;;;;1.00;0.00;;;;;4.45;100.00;99391.81;5077338;27;45237;-69
2021/12/05 03:02:18;;;;;;;;;1.00;1.00;;;;;4.41;100.00;99394.56;5076915;27;45421;-73
2021/12/05 03:04:47;;;;;;;;;0.00;0.00;;;;;4.39;100.00;99408.47;5077885;27;45241;-71
2021/12/05 03:07:15;;;;;;;;;3.00;2.50;;;;;4.38;100.00;99411.97;5078465;27;46009;-71
2021/12/05 03:09:44;;;;;;;;;0.50;0.50;;;;;4.31;100.00;99396.63;5076989;27;45330;-67
2021/12/05 03:12:16;;;;;;;;;0.50;0.50;;;;;4.34;100.00;99404.34;5076368;27;45369;-71
2021/12/05 03:14:42;;;;;;;;;0.50;0.00;;;;;4.30;100.00;99395.75;5077062;27;45319;-70
2021/12/05 03:17:07;;;;;;;;;2.00;0.00;;;;;4.28;100.00;99389.75;5077170;27;46129;-70
2021/12/05 03:19:32;;;;;;;;;0.00;0.00;;;;;4.23;100.00;99391.66;5077834;27;45157;-72
2021/12/05 03:21:58;;;;;;;;;0.00;0.00;;;;;4.22;100.00;99393.41;5078568;27;45750;-71
2021/12/05 03:24:24;;;;;;;;;0.00;0.00;;;;;4.19;100.00;99397.88;5078363;27;45467;-70
2021/12/05 03:26:52;;;;;;;;;0.25;0.25;;;;;4.16;100.00;99398.81;5075993;27;45432;-69
2021/12/05 03:29:20;;;;;;;;;0.00;0.00;;;;;4.15;100.00;99404.91;5078091;27;45348;-69
2021/12/05 03:31:46;;;;;;;;;0.00;0.00;;;;;4.11;100.00;99398.13;5078541;27;45352;-70
2021/12/05 03:34:14;;;;;;;;;2.75;0.25;;;;;4.08;100.00;99393.88;5076289;27;45312;-65
2021/12/05 03:36:43;;;;;;;;;0.25;0.25;;;;;4.09;100.00;99392.09;5075457;28;46194;-66
2021/12/05 03:39:10;;;;;;;;;0.00;0.00;;;;;4.19;100.00;99387.47;5076531;27;45434;-68
2021/12/05 03:41:37;;;;;;;;;3.00;0.00;;;;;4.06;100.00;99359.25;5076259;27;45390;-68
2021/12/05 03:44:04;;;;;;;;;1.00;0.00;;;;;4.12;100.00;99375.56;5076067;27;45520;-73
2021/12/05 03:46:30;;;;;;;;;1.00;1.00;;;;;4.05;100.00;99367.09;5076341;27;45782;-69
2021/12/05 03:49:02;;;;;;;;;0.00;0.00;;;;;4.07;100.00;99383.50;5079210;27;45480;-70
2021/12/05 03:51:30;;;;;;;;;5.25;5.25;;;;;4.07;100.00;99375.69;5081899;27;45373;-70
2021/12/05 03:53:56;;;;;;;;;0.75;0.00;;;;;4.06;100.00;99380.06;5082577;27;44915;-71
2021/12/05 03:56:22;;;;;;;;;1.00;0.75;;;;;4.06;100.00;99369.66;5078926;27;46594;-70
2021/12/05 03:58:50;;;;;;;;;1.00;1.00;;;;;4.16;100.00;99361.53;5077881;27;45312;-71
2021/12/05 04:01:17;;;;;;;;;2.00;0.75;;;;;4.14;100.00;99356.38;5076679;27;45378;-68
2021/12/05 04:03:45;;;;;;;;;2.00;1.00;;;;;4.17;100.00;99353.66;5075845;27;45285;-67
2021/12/05 04:06:14;;;;;;;;;1.00;0.00;;;;;4.16;100.00;99354.56;5076299;27;46476;-67
2021/12/05 04:08:40;;;;;;;;;0.00;0.00;;;;;4.21;100.00;99363.06;5075402;28;45322;-69
2021/12/05 04:11:30;;;;;;;;;2.00;1.00;;;;;4.22;100.00;99362.16;5077816;27;45397;-69
2021/12/05 04:13:56;;;;;;;;;0.00;0.00;;;;;4.19;100.00;99353.63;5076586;27;45211;-68
2021/12/05 04:16:22;;;;;;;;;0.25;0.00;;;;;4.16;100.00;99357.16;5077765;28;46133;-68
2021/12/05 04:18:48;;;;;;;;;0.00;0.00;;;;;4.05;100.00;99344.53;5077391;27;45402;-67
2021/12/05 04:21:16;;;;;;;;;1.50;0.00;;;;;4.12;100.00;99362.53;5091673;27;45477;-66
2021/12/05 04:23:41;;;;;;;;;0.00;0.00;;;;;4.11;100.00;99371.25;5076756;27;45654;-68
2021/12/05 04:26:08;;;;;;;;;0.25;0.25;;;;;4.09;100.00;99368.69;5075721;27;45361;-66
2021/12/05 04:28:34;;;;;;;;;1.00;0.00;;;;;4.05;100.00;99367.94;5075165;27;45414;-67
2021/12/05 04:31:01;;;;;;;;;1.25;0.00;;;;;4.05;100.00;99367.94;5075780;28;45459;-67
2021/12/05 04:33:26;;;;;;;;;0.00;0.00;;;;;4.09;100.00;99372.16;5076000;27;45555;-67
2021/12/05 04:35:52;;;;;;;;;1.00;0.50;;;;;4.10;100.00;99362.56;5075512;27;46314;-63
2021/12/05 04:38:17;;;;;;;;;0.00;0.00;;;;;4.13;100.00;99357.28;5074501;28;45311;-64
2021/12/05 04:40:45;;;;;;;;;0.00;0.00;;;;;4.10;100.00;99359.97;5077490;27;45348;-64
2021/12/05 04:43:10;;;;;;;;;0.00;0.00;;;;;4.13;100.00;99364.25;5075980;27;45336;-67
2021/12/05 04:45:36;;;;;;;;;0.00;0.00;;;;;4.07;99.58;99357.47;5074704;28;45299;-64
2021/12/05 04:48:05;;;;;;;;;0.00;0.00;;;;;4.01;99.75;99357.69;5077530;27;45304;-68
2021/12/05 04:50:31;;;;;;;;;0.00;0.00;;;;;3.99;100.00;99349.94;5080342;27;45299;-67
2021/12/05 04:52:57;;;;;;;;;0.00;0.00;;;;;3.95;100.00;99354.38;5077859;28;45457;-64
2021/12/05 04:55:23;;;;;;;;;0.00;0.00;;;;;3.92;100.00;99364.88;5078864;27;46279;-64
2021/12/05 04:57:49;;;;;;;;;1.00;1.00;;;;;3.86;100.00;99346.88;5093664;27;46168;-63
2021/12/05 05:00:21;;;;;;;;;1.50;0.00;;;;;3.84;100.00;99353.03;5078705;27;45929;-68
2021/12/05 05:02:46;;;;;;;;;1.00;0.00;;;;;3.82;100.00;99355.69;5079148;27;45246;-64
2021/12/05 05:05:12;;;;;;;;;0.00;0.00;;;;;3.78;100.00;99348.88;5079072;27;46307;-66
2021/12/05 05:07:40;;;;;;;;;2.00;0.00;;;;;3.77;100.00;99344.56;5078778;27;45338;-67
2021/12/05 05:10:28;;;;;;;;;0.00;0.00;;;;;3.77;100.00;99350.63;5078549;28;45332;-68
2021/12/05 05:12:54;;;;;;;;;1.75;0.00;;;;;3.75;100.00;99339.44;5081121;27;45258;-68
2021/12/05 05:15:22;;;;;;;;;0.75;0.00;;;;;3.75;100.00;99341.16;5079491;27;46180;-69
2021/12/05 05:17:50;;;;;;;;;1.25;0.00;;;;;3.77;100.00;99345.44;5078783;27;45380;-64
2021/12/05 05:47:11;;;;;;;;;0.25;0.25;;;;;4.26;100.00;99352.53;4995799;28;45445;-67
2021/12/05 05:52:09;;;;;;;;;2.50;0.00;;;;;4.40;100.00;99352.06;5067154;28;45776;-66
2021/12/05 05:54:34;;;;;;;;;1.00;0.00;;;;;4.45;100.00;99352.75;5083125;27;45204;-65
2021/12/05 05:57:10;;;;;;;;;0.00;0.00;;;;;4.55;100.00;99342.00;5086283;27;46071;-68
2021/12/05 06:00:27;;;;;;;;;0.00;0.00;;;;;4.59;100.00;99344.44;5083793;27;45349;-66
2021/12/05 06:05:10;;;;;;;;;2.00;0.25;;;;;4.71;100.00;99343.16;5078299;28;45487;-66
2021/12/05 06:07:41;;;;;;;;;1.00;0.00;;;;;4.71;100.00;99337.94;5077423;27;46935;-64
2021/12/05 06:10:10;;;;;;;;;1.00;1.00;;;;;4.73;100.00;99337.88;5078649;27;45267;-68
2021/12/05 06:12:36;;;;;;;;;1.25;1.00;;;;;4.74;100.00;99340.44;5078844;27;45254;-64
2021/12/05 06:15:01;;;;;;;;;2.00;1.00;;;;;4.74;100.00;99329.16;5079266;27;45329;-69
2021/12/05 06:17:28;;;;;;;;;1.00;0.25;;;;;4.71;100.00;99327.53;5083854;27;45312;-67
2021/12/05 06:19:54;;;;;;;;;0.00;0.00;;;;;4.66;100.00;99324.25;5082118;28;45268;-67
2021/12/05 06:22:19;;;;;;;;;0.00;0.00;;;;;4.68;100.00;99319.81;5077710;27;45317;-67
2021/12/05 06:24:45;;;;;;;;;0.00;0.00;;;;;4.64;100.00;99316.47;5077071;27;45203;-68
2021/12/05 06:27:10;;;;;;;;;2.25;0.00;;;;;4.66;100.00;99314.66;5077342;27;46050;-67
2021/12/05 06:29:42;;;;;;;;;0.00;0.00;;;;;4.64;100.00;99324.28;5077911;27;45306;-67
2021/12/05 06:37:44;;;;;;;;;1.25;0.50;;;;;4.72;100.00;99336.19;5057285;28;45331;-65
2021/12/05 06:40:34;;;;;;;;;0.00;0.00;;;;;4.65;100.00;99328.59;5057136;28;45296;-68
2021/12/05 06:43:05;;;;;;;;;0.00;0.00;;;;;4.69;100.00;99342.38;5056857;28;45438;-68
2021/12/05 06:48:15;;;;;;;;;2.00;2.00;;;;;4.60;100.00;99316.66;5076634;27;45763;-67
2021/12/05 06:50:40;;;;;;;;;1.50;1.50;;;;;4.68;100.00;99338.06;5077027;27;45344;-66
2021/12/05 06:53:07;;;;;;;;;1.00;0.25;;;;;4.66;100.00;99330.28;5077170;27;45633;-67
2021/12/05 06:55:33;;;;;;;;;2.00;0.50;;;;;4.72;99.81;99341.38;5077524;27;45523;-67
2021/12/05 06:57:58;;;;;;;;;0.00;0.00;;;;;4.73;99.87;99348.28;5078327;27;46208;-65
2021/12/05 07:00:29;;;;;;;;;2.00;0.00;;;;;4.76;100.00;99354.25;5081169;27;45306;-65
2021/12/05 07:02:54;;;;;;;;;2.50;0.00;;;;;4.78;100.00;99347.25;5079500;28;45372;-66
2021/12/05 07:07:54;;;;;;;;;0.00;0.00;;;;;4.83;100.00;99354.91;5077005;27;46063;-68
2021/12/05 07:10:21;;;;;;;;;2.50;1.00;;;;;4.82;100.00;99353.22;5075548;27;45409;-66
2021/12/05 07:13:33;;;;;;;;;2.00;0.00;;;;;4.81;100.00;99356.72;5076580;27;45368;-67
2021/12/05 07:16:08;;;;;;;;;0.00;0.00;;;;;4.80;100.00;99347.19;5076794;28;45428;-66
2021/12/05 07:18:41;;;;;;;;;0.00;0.00;;;;;4.64;100.00;99329.50;5076521;27;45460;-69
2021/12/05 07:21:38;;;;;;;;;1.00;1.00;;;;;4.70;100.00;99343.19;5076509;27;45414;-68
2021/12/05 07:42:53;;;;;;;;;0.50;0.00;;;;;4.77;100.00;99362.91;5075832;28;45322;-68
2021/12/05 07:45:24;;;;;;;;;2.00;1.00;;;;;4.77;100.00;99355.09;5076119;27;45529;-67
2021/12/05 07:47:51;;;;;;;;;1.00;1.00;;;;;4.78;100.00;99360.25;5076343;28;45333;-68
2021/12/05 07:50:20;;;;;;;;;1.00;0.75;;;;;4.73;100.00;99359.59;5076701;27;47625;-67
2021/12/05 07:52:50;;;;;;;;;1.00;0.00;;;;;4.69;100.00;99360.59;5076100;27;46155;-70
2021/12/05 07:55:31;;;;;;;;;1.00;0.25;;;;;4.65;100.00;99353.81;5076771;27;45346;-67
2021/12/05 08:16:56;;;;;;;;;1.50;1.00;;;;;4.86;100.00;99369.56;5076007;27;45422;-69
2021/12/05 08:19:21;;;;;;;;;3.50;1.00;;;;;4.86;100.00;99364.34;5074915;28;45527;-70
2021/12/05 08:21:54;;;;;;;;;2.50;1.50;;;;;4.88;100.00;99362.53;5075308;27;46114;-68
2021/12/05 08:24:19;;;;;;;;;3.00;1.00;;;;;4.84;100.00;99361.81;5079174;27;45403;-70
2021/12/05 08:26:48;;;;;;;;;2.50;1.00;;;;;4.84;100.00;99361.81;5078753;27;45243;-69
2021/12/05 08:29:17;;;;;;;;;4.25;2.00;;;;;4.81;100.00;99360.16;5079725;27;45429;-68
2021/12/05 09:08:46;;;;;;;;;10.00;7.00;;;;;5.04;100.00;99384.53;5080058;27;45457;-68
2021/12/05 09:28:32;;;;;;;;;3.00;2.00;;;;;5.35;100.00;99404.28;5078818;28;45334;-65
2021/12/05 10:07:00;;;;;;;;;4.00;3.50;;;;;6.33;100.00;99423.13;5070456;27;45365;-65
2021/12/05 10:34:57;;;;;;;;;5.00;2.25;;;;;7.34;97.30;99419.66;5077355;28;45481;-66
2021/12/05 10:37:24;;;;;;;;;6.75;4.00;;;;;7.42;97.83;99414.09;5077291;28;45246;-65
2021/12/05 10:40:13;;;;;;;;;7.50;4.75;;;;;7.39;97.90;99409.81;5076145;28;45632;-66
2021/12/05 10:42:44;;;;;;;;;8.00;6.50;;;;;7.31;99.31;99402.34;5078163;27;46186;-63
2021/12/05 10:45:18;;;;;;;;;5.00;3.50;;;;;7.29;97.45;99403.31;5076848;27;45477;-64
2021/12/05 10:47:47;;;;;;;;;2.75;2.00;;;;;7.22;98.06;99404.50;5081875;27;45381;-65
2021/12/05 10:50:39;;;;;;;;;6.75;3.75;;;;;7.23;98.65;99398.38;5080111;27;45657;-68
2021/12/05 10:53:29;;;;;;;;;6.50;4.50;;;;;7.29;98.89;99398.09;5072976;28;45512;-65
2021/12/05 10:55:56;;;;;;;;;3.25;3.25;;;;;7.29;98.54;99406.81;5077737;28;45320;-65
2021/12/05 10:58:23;;;;;;;;;4.00;4.00;;;;;7.22;97.55;99400.16;5074500;28;45273;-68
2021/12/05 11:01:02;;;;;;;;;8.25;4.00;;;;;7.13;97.27;99390.94;5086085;27;45515;-66
2021/12/05 11:03:28;;;;;;;;;6.00;6.00;;;;;7.18;97.72;99397.72;5087741;27;45489;-63
2021/12/05 11:05:53;;;;;;;;;3.75;3.50;;;;;7.17;98.23;99402.13;5080718;27;45308;-65
2021/12/05 11:08:38;;;;;;;;;6.00;5.00;;;;;7.15;97.04;99389.09;5078699;28;45380;-65
2021/12/05 11:11:12;;;;;;;;;4.25;4.00;;;;;7.13;97.89;99387.50;5077196;27;45588;-65
2021/12/05 11:13:40;;;;;;;;;3.00;3.00;;;;;7.04;96.86;99374.84;5076434;27;46547;-63
2021/12/05 11:16:36;;;;;;;;;5.75;4.75;;;;;7.05;97.71;99385.22;5076855;27;45243;-64
2021/12/05 11:19:11;;;;;;;;;4.75;4.50;;;;;7.04;97.99;99382.69;5077843;27;45243;-66
2021/12/05 11:21:46;;;;;;;;;5.75;4.50;;;;;7.00;97.68;99393.28;5077312;28;45282;-67
2021/12/05 11:24:11;;;;;;;;;10.00;8.00;;;;;6.98;98.05;99391.63;5076229;27;46300;-64
2021/12/05 11:26:40;;;;;;;;;6.25;6.25;;;;;6.93;98.55;99386.63;5077185;28;45217;-64
2021/12/05 11:29:08;;;;;;;;;6.00;6.00;;;;;6.97;99.33;99393.41;5077734;27;45450;-66
2021/12/05 11:31:34;;;;;;;;;7.25;4.50;;;;;6.95;98.12;99386.53;5076053;28;45585;-65
2021/12/05 11:34:01;;;;;;;;;5.00;5.00;;;;;6.87;98.91;99382.50;5074785;28;46385;-63
2021/12/05 11:36:30;;;;;;;;;8.25;5.50;;;;;6.89;99.49;99392.03;5074896;27;45393;-64
2021/12/05 11:38:55;;;;;;;;;9.00;7.00;;;;;6.83;100.00;99386.16;5077189;27;45252;-64
2021/12/05 11:41:23;;;;;;;;;6.75;4.50;;;;;6.72;100.00;99389.22;5078121;27;45366;-65
2021/12/05 11:43:59;;;;;;;;;5.00;5.00;;;;;6.50;100.00;99401.53;5078020;27;45395;-63
2021/12/05 11:46:27;;;;;;;;;3.75;3.75;;;;;6.12;100.00;99404.81;5076134;27;45340;-65
2021/12/05 11:48:59;;;;;;;;;8.75;8.25;;;;;5.73;100.00;99410.69;5077000;27;45422;-65
2021/12/05 11:51:33;;;;;;;;;8.50;6.00;;;;;5.51;100.00;99416.72;5075410;28;45354;-65
2021/12/05 11:54:08;;;;;;;;;14.25;11.25;;;;;5.32;100.00;99409.59;5075334;27;45439;-64
2021/12/05 11:56:34;;;;;;;;;7.00;7.00;;;;;5.10;100.00;99420.78;5075396;27;45376;-63
2021/12/05 11:59:11;;;;;;;;;10.25;7.50;;;;;4.90;100.00;99434.56;5076266;27;45368;-61
2021/12/05 12:01:48;;;;;;;;;8.00;7.00;;;;;4.74;100.00;99429.00;5076299;27;45479;-62
2021/12/05 12:04:17;;;;;;;;;10.50;6.75;;;;;4.67;100.00;99430.13;5076561;27;46354;-62
2021/12/05 12:06:45;;;;;;;;;5.00;4.50;;;;;4.58;100.00;99444.31;5078155;27;45307;-65
2021/12/05 12:09:11;;;;;;;;;5.00;4.00;;;;;4.43;100.00;99439.63;5077854;28;45235;-61
2021/12/05 12:11:36;;;;;;;;;7.25;4.75;;;;;4.33;100.00;99429.50;5077055;27;45527;-65
2021/12/05 12:14:04;;;;;;;;;9.25;7.50;;;;;4.34;100.00;99436.41;5076917;27;45951;-64
2021/12/05 12:16:33;;;;;;;;;6.00;5.00;;;;;4.35;100.00;99430.31;5069959;28;45461;-63
2021/12/05 12:19:01;;;;;;;;;11.00;10.00;;;;;4.37;100.00;99435.47;5075887;27;45401;-63
2021/12/05 12:21:38;;;;;;;;;5.75;4.00;;;;;4.35;100.00;99429.47;5075537;27;45568;-64
2021/12/05 12:24:04;;;;;;;;;17.75;15.50;;;;;4.36;100.00;99433.78;5075201;27;47548;-64
2021/12/05 12:26:30;;;;;;;;;8.00;5.00;;;;;4.32;100.00;99432.19;5074693;27;45579;-68
2021/12/05 12:28:57;;;;;;;;;5.25;5.00;;;;;4.26;100.00;99430.63;5090997;27;45350;-67
2021/12/05 12:31:28;;;;;;;;;2.25;2.25;;;;;4.26;100.00;99442.78;5078100;28;45344;-68
2021/12/05 12:33:56;;;;;;;;;9.50;8.00;;;;;4.16;100.00;99442.22;5073581;28;46415;-67
2021/12/05 12:36:39;;;;;;;;;10.25;6.00;;;;;4.17;100.00;99447.38;5062099;27;45476;-71
2021/12/05 12:39:32;;;;;;;;;5.75;5.00;;;;;4.15;100.00;99443.97;5066568;27;45443;-66
2021/12/05 12:42:26;;;;;;;;;9.00;8.50;;;;;4.16;100.00;99445.66;5072251;28;45984;-67
2021/12/05 12:45:15;;;;;;;;;3.75;3.00;;;;;4.12;100.00;99457.06;5072736;28;47209;-69
2021/12/05 12:47:43;;;;;;;;;5.50;3.25;;;;;4.07;100.00;99452.03;5080126;27;45502;-65
2021/12/05 12:50:35;;;;;;;;;6.75;6.50;;;;;4.09;100.00;99458.03;5072050;27;45492;-67
2021/12/05 12:53:37;;;;;;;;;8.50;5.75;;;;;4.22;100.00;99463.69;5062919;28;45398;-73
2021/12/05 12:56:17;;;;;;;;;7.50;7.50;;;;;4.25;100.00;99460.16;5067411;27;45682;-70
2021/12/05 12:58:50;;;;;;;;;5.75;5.00;;;;;4.24;100.00;99456.72;5074886;27;45575;-67
2021/12/05 13:02:15;;;;;;;;;2.25;2.25;;;;;4.15;100.00;99454.38;5074164;27;45399;-68
2021/12/05 13:12:51;;;;;;;;;5.25;4.00;;;;;4.60;100.00;99465.94;5098880;27;45337;-65
2021/12/05 13:15:27;;;;;;;;;9.25;6.50;;;;;4.68;100.00;99471.75;5079988;27;46070;-64
2021/12/05 13:17:57;;;;;;;;;6.50;6.50;;;;;4.75;100.00;99480.22;5094923;27;46162;-64
2021/12/05 13:20:43;;;;;;;;;10.00;9.25;;;;;4.85;100.00;99482.50;5080260;27;46115;-66
2021/12/05 13:23:12;;;;;;;;;5.00;5.00;;;;;4.93;100.00;99483.09;5081083;27;45411;-66
2021/12/05 13:26:14;;;;;;;;;10.00;6.00;;;;;5.09;100.00;99486.03;5083413;27;45705;-70
2021/12/05 13:28:54;;;;;;;;;8.25;6.00;;;;;5.10;100.00;99475.53;5075791;27;46246;-70
2021/12/05 13:31:28;;;;;;;;;6.50;5.25;;;;;5.22;100.00;99476.88;5079798;27;45412;-72
2021/12/05 13:34:31;;;;;;;;;7.00;6.25;;;;;5.24;100.00;99475.06;5076485;27;45410;-62
2021/12/05 13:37:19;;;;;;;;;9.50;8.50;;;;;5.31;100.00;99480.91;5062800;28;45610;-69
2021/12/05 13:39:53;;;;;;;;;6.50;6.00;;;;;5.30;100.00;99486.16;5076424;27;46232;-64
2021/12/05 13:42:24;;;;;;;;;8.25;7.00;;;;;5.25;100.00;99484.56;5075103;27;45655;-63
2021/12/05 13:45:05;;;;;;;;;6.25;6.25;;;;;5.23;100.00;99498.56;5077710;27;45463;-63
2021/12/05 13:47:50;;;;;;;;;12.75;11.25;;;;;5.16;100.00;99494.47;5077660;27;45420;-65
2021/12/05 13:50:18;;;;;;;;;12.75;10.00;;;;;5.14;100.00;99488.47;5080669;27;45888;-63
2021/12/05 13:52:55;;;;;;;;;9.25;9.25;;;;;5.18;100.00;99495.25;5079117;27;45470;-64
2021/12/05 13:55:36;;;;;;;;;6.00;5.50;;;;;5.23;100.00;99501.16;5062049;28;45332;-63
2021/12/05 13:58:38;;;;;;;;;10.75;8.50;;;;;5.23;100.00;99506.38;5078644;27;45576;-63
2021/12/05 14:01:15;;;;;;;;;6.75;4.75;;;;;5.22;100.00;99515.09;5077964;27;46420;-65
2021/12/05 14:04:03;;;;;;;;;6.25;6.00;;;;;5.19;100.00;99510.00;5076489;28;45501;-62
2021/12/05 14:07:04;;;;;;;;;8.00;5.25;;;;;5.22;100.00;99515.09;5076273;28;45373;-63
2021/12/05 14:09:48;;;;;;;;;8.00;6.00;;;;;5.24;100.00;99515.91;5078564;27;45357;-63
2021/12/05 14:12:27;;;;;;;;;5.50;5.25;;;;;5.30;100.00;99520.06;5077803;27;46093;-65
2021/12/05 14:15:04;;;;;;;;;5.75;4.00;;;;;5.37;100.00;99514.59;5079018;27;45488;-64
2021/12/05 14:17:33;;;;;;;;;7.00;6.25;;;;;5.40;100.00;99514.47;5082001;27;45221;-64
2021/12/05 14:20:03;;;;;;;;;8.50;7.75;;;;;5.47;100.00;99509.88;5084477;27;45263;-64
2021/12/05 14:22:32;;;;;;;;;11.75;11.00;;;;;5.50;100.00;99516.75;5090378;27;46098;-62
2021/12/05 14:25:01;;;;;;;;;8.75;7.00;;;;;5.50;100.00;99520.19;5090507;27;45269;-64
2021/12/05 14:27:36;;;;;;;;;11.25;11.00;;;;;5.49;100.00;99528.09;5081668;27;45468;-65
2021/12/05 14:30:07;;;;;;;;;11.75;9.25;;;;;5.47;100.00;99532.50;5082402;27;45431;-65
2021/12/05 14:32:36;;;;;;;;;13.75;10.75;;;;;5.52;100.00;99538.41;5081434;27;46549;-64
2021/12/05 14:35:08;;;;;;;;;7.75;7.00;;;;;5.57;100.00;99539.09;5076285;27;45295;-65
2021/12/05 14:37:37;;;;;;;;;14.50;13.25;;;;;5.59;100.00;99546.84;5077788;27;45418;-64
2021/12/05 14:40:09;;;;;;;;;12.75;10.75;;;;;5.65;100.00;99539.66;5077600;27;45376;-63
2021/12/05 14:42:38;;;;;;;;;15.50;13.50;;;;;5.69;100.00;99541.25;5077909;27;45541;-66
2021/12/05 14:45:09;;;;;;;;;14.50;12.00;;;;;5.73;100.00;99538.53;5079483;27;45368;-64
2021/12/05 14:47:36;;;;;;;;;7.25;7.25;;;;;5.78;100.00;99545.28;5077702;27;45417;-65
2021/12/05 14:50:10;;;;;;;;;11.00;7.00;;;;;5.79;100.00;99551.34;5077768;27;45325;-62
2021/12/05 14:52:39;;;;;;;;;8.50;8.00;;;;;5.80;100.00;99551.28;5077808;27;47064;-64
2021/12/05 14:55:08;;;;;;;;;8.00;6.75;;;;;5.77;100.00;99564.44;5077539;27;45188;-64
2021/12/05 14:57:40;;;;;;;;;8.00;8.00;;;;;5.74;100.00;99561.94;5078314;27;45355;-64
2021/12/05 15:00:13;;;;;;;;;7.50;5.00;;;;;5.68;100.00;99564.78;5079921;28;45320;-65
2021/12/05 15:02:39;;;;;;;;;7.75;6.00;;;;;5.73;100.00;99572.47;5079351;27;47079;-64
2021/12/05 15:05:10;;;;;;;;;8.00;5.75;;;;;5.69;100.00;99579.53;5093385;27;45373;-64
2021/12/05 15:07:36;;;;;;;;;7.25;6.25;;;;;5.63;100.00;99574.53;5077366;27;45459;-64
2021/12/05 15:10:02;;;;;;;;;7.75;6.00;;;;;5.67;100.00;99590.03;5078185;27;45300;-64
2021/12/05 15:12:31;;;;;;;;;7.00;7.00;;;;;5.66;100.00;99593.56;5078416;27;46383;-65
2021/12/05 15:14:59;;;;;;;;;12.25;10.00;;;;;5.70;100.00;99592.53;5079132;27;45750;-65
2021/12/05 15:17:28;;;;;;;;;9.25;7.50;;;;;5.73;100.00;99596.78;5077543;28;45349;-63
2021/12/05 15:19:58;;;;;;;;;8.00;6.50;;;;;5.70;100.00;99602.97;5089370;27;45481;-62
2021/12/05 15:22:25;;;;;;;;;8.75;8.50;;;;;5.57;100.00;99609.53;5079749;27;45456;-65
2021/12/05 15:24:56;;;;;;;;;6.75;6.75;;;;;5.41;100.00;99612.69;5077872;27;45397;-65
2021/12/05 15:27:24;;;;;;;;;11.75;9.00;;;;;5.32;100.00;99615.59;5076347;27;45372;-65
2021/12/05 15:30:12;;;;;;;;;11.00;10.75;;;;;5.30;100.00;99624.38;5077275;27;45461;-64
2021/12/05 15:32:38;;;;;;;;;8.50;8.50;;;;;5.26;100.00;99631.44;5077261;27;47187;-64
2021/12/05 15:35:10;;;;;;;;;8.00;7.00;;;;;5.25;100.00;99628.00;5085131;27;45401;-63
2021/12/05 15:37:35;;;;;;;;;8.25;7.25;;;;;5.24;100.00;99630.63;5089628;27;45252;-65
2021/12/05 15:40:05;;;;;;;;;8.25;8.25;;;;;5.21;100.00;99633.34;5072444;27;45524;-66
2021/12/05 15:42:37;;;;;;;;;12.00;10.00;;;;;5.20;100.00;99645.53;5067437;27;45341;-69
2021/12/05 15:45:10;;;;;;;;;5.00;5.00;;;;;5.19;100.00;99656.00;5069964;27;45526;-66
2021/12/05 15:47:37;;;;;;;;;12.50;7.00;;;;;5.17;100.00;99656.06;5068697;27;45487;-67
2021/12/05 15:50:12;;;;;;;;;8.00;5.75;;;;;5.17;100.00;99658.69;5076232;27;45586;-65
2021/12/05 15:52:56;;;;;;;;;7.75;6.75;;;;;5.17;100.00;99663.88;5075713;27;45592;-67
2021/12/05 15:55:26;;;;;;;;;9.00;9.00;;;;;5.00;100.00;99632.31;5086758;27;45325;-67
2021/12/05 15:58:02;;;;;;;;;7.00;5.75;;;;;5.21;100.00;99683.75;5080657;27;45481;-65
2021/12/05 16:00:35;;;;;;;;;10.00;6.25;;;;;5.12;100.00;99666.63;5075625;27;45425;-66
2021/12/05 16:03:07;;;;;;;;;8.50;8.00;;;;;5.21;100.00;99690.69;5076246;27;46285;-66
2021/12/05 16:05:35;;;;;;;;;9.50;8.25;;;;;4.98;100.00;99658.41;5092745;27;45504;-66
2021/12/05 16:08:10;;;;;;;;;7.50;6.75;;;;;5.18;100.00;99702.09;5079091;27;45560;-66
2021/12/05 16:10:39;;;;;;;;;8.50;8.00;;;;;5.21;100.00;99704.59;5078926;27;45401;-67
2021/12/05 16:13:25;;;;;;;;;8.25;7.00;;;;;5.28;100.00;99707.00;5078520;27;45468;-64
2021/12/05 16:15:53;;;;;;;;;11.00;10.25;;;;;5.29;100.00;99716.53;5080619;27;45447;-64
2021/12/05 16:18:29;;;;;;;;;8.50;8.50;;;;;5.32;100.00;99717.31;5056718;28;45511;-65
2021/12/05 16:21:01;;;;;;;;;9.00;7.25;;;;;5.35;100.00;99725.03;5056190;28;45531;-66
2021/12/05 16:23:31;;;;;;;;;12.50;6.00;;;;;5.41;100.00;99734.41;5074674;28;46377;-65
2021/12/05 16:26:11;;;;;;;;;8.00;7.25;;;;;5.39;100.00;99724.03;5057862;28;45506;-68
2021/12/05 16:28:46;;;;;;;;;6.25;6.25;;;;;5.43;100.00;99735.19;5075046;28;45330;-67
2021/12/05 16:31:21;;;;;;;;;6.00;4.00;;;;;5.48;100.00;99740.28;5078312;27;45342;-70
2021/12/05 16:33:53;;;;;;;;;9.50;6.75;;;;;5.48;100.00;99746.34;5074514;27;46515;-67
2021/12/05 16:36:19;;;;;;;;;5.00;5.00;;;;;5.50;100.00;99751.53;5076011;27;45397;-68
2021/12/05 16:38:50;;;;;;;;;8.00;8.00;;;;;5.50;100.00;99739.31;5074442;27;45691;-67
2021/12/05 16:41:15;;;;;;;;;11.00;7.00;;;;;5.53;100.00;99743.59;5075776;27;45707;-65
2021/12/05 16:44:04;;;;;;;;;10.00;8.50;;;;;5.53;100.00;99743.59;5078886;27;46157;-65
2021/12/05 16:46:41;;;;;;;;;7.75;6.50;;;;;5.55;100.00;99760.88;5083146;27;45340;-65
2021/12/05 16:49:19;;;;;;;;;10.50;7.00;;;;;5.55;100.00;99760.88;5082498;27;45332;-65
2021/12/05 16:51:53;;;;;;;;;9.50;7.75;;;;;5.55;100.00;99765.25;5078780;27;45417;-66
2021/12/05 16:54:24;;;;;;;;;5.75;4.00;;;;;5.54;100.00;99768.78;5081872;27;46418;-64
2021/12/05 16:56:57;;;;;;;;;10.00;8.50;;;;;5.51;100.00;99769.72;5079948;27;45342;-64
2021/12/05 16:59:39;;;;;;;;;14.50;10.75;;;;;5.57;100.00;99779.13;5079868;27;45405;-62
2021/12/05 17:02:14;;;;;;;;;11.25;8.00;;;;;5.60;100.00;99780.75;5082340;27;45157;-66
2021/12/05 17:04:44;;;;;;;;;10.25;10.25;;;;;5.61;100.00;99774.63;5080148;27;47833;-65
2021/12/05 17:07:14;;;;;;;;;8.50;8.00;;;;;5.61;100.00;99783.31;5083181;27;45400;-68
2021/12/05 17:09:41;;;;;;;;;6.50;6.25;;;;;5.56;100.00;99773.03;5082016;27;45289;-65
2021/12/05 17:12:25;;;;;;;;;11.00;10.25;;;;;5.65;100.00;99794.50;5082368;27;45297;-66
2021/12/05 17:14:51;;;;;;;;;19.00;13.00;;;;;5.64;100.00;99788.44;5081954;27;46328;-67
2021/12/05 17:17:32;;;;;;;;;14.75;11.25;;;;;5.65;100.00;99789.28;5079527;27;45256;-63
2021/12/05 17:19:57;;;;;;;;;13.50;12.00;;;;;5.71;100.00;99796.91;5079601;28;45362;-65
2021/12/05 17:22:22;;;;;;;;;14.00;11.75;;;;;5.69;100.00;99796.09;5080073;27;45526;-67
2021/12/05 17:24:49;;;;;;;;;14.25;12.75;;;;;5.77;100.00;99799.31;5081072;27;45791;-69